createdAt,value
2022-11-26T00:00:51.162Z,27.40
2022-11-26T00:04:05.035Z,27.00
2022-11-26T00:07:11.183Z,27.10
2022-11-26T00:10:22.430Z,26.80
2022-11-26T00:13:26.935Z,26.60
2022-11-26T00:16:30.355Z,26.40
2022-11-26T00:19:32.489Z,26.40
2022-11-26T00:22:44.215Z,26.40
2022-11-26T00:25:50.487Z,26.40
2022-11-26T00:29:02.592Z,26.20
2022-11-26T00:32:14.632Z,26.20
2022-11-26T00:35:16.582Z,26.20
2022-11-26T00:38:21.721Z,26.20
2022-11-26T00:41:28.918Z,26.10
2022-11-26T00:44:32.226Z,26.10
2022-11-26T00:47:34.052Z,26.10
2022-11-26T00:50:50.782Z,26.20
2022-11-26T00:53:58.779Z,26.20
2022-11-26T00:57:04.053Z,26.10
2022-11-26T01:00:20.033Z,26.30
2022-11-26T01:03:22.606Z,26.50
2022-11-26T01:06:32.360Z,26.40
2022-11-26T01:09:34.437Z,26.30
2022-11-26T01:12:36.276Z,26.40
2022-11-26T01:15:40.676Z,26.50
2022-11-26T01:18:42.540Z,26.40
2022-11-26T01:21:44.659Z,26.30
2022-11-26T01:24:46.828Z,26.40
2022-11-26T01:27:49.578Z,26.50
2022-11-26T01:30:51.454Z,26.50
2022-11-26T01:33:53.968Z,26.50
2022-11-26T01:36:55.794Z,26.50
2022-11-26T01:39:57.851Z,26.60
2022-11-26T01:43:06.151Z,26.60
2022-11-26T01:46:15.698Z,27.00
2022-11-26T01:49:18.883Z,27.00
2022-11-26T01:52:24.968Z,27.40
2022-11-26T01:55:35.883Z,27.50
2022-11-26T01:58:40.950Z,27.20
2022-11-26T02:01:42.818Z,26.80
2022-11-26T02:05:00.209Z,26.60
2022-11-26T02:08:02.771Z,26.40
2022-11-26T02:11:20.711Z,26.40
2022-11-26T02:14:23.991Z,26.40
2022-11-26T02:17:43.260Z,26.40
2022-11-26T02:20:56.089Z,26.40
2022-11-26T02:24:12.539Z,26.60
2022-11-26T02:27:25.268Z,26.30
2022-11-26T02:30:30.546Z,26.80
2022-11-26T02:33:53.937Z,26.60
2022-11-26T02:37:01.752Z,26.40
2022-11-26T02:40:04.871Z,26.30
2022-11-26T02:43:06.939Z,26.30
2022-11-26T02:46:14.272Z,26.30
2022-11-26T02:49:22.636Z,26.30
2022-11-26T02:52:26.572Z,26.40
2022-11-26T02:55:33.337Z,26.70
2022-11-26T02:58:35.974Z,27.50
2022-11-26T03:02:05.127Z,26.80
2022-11-26T03:05:08.688Z,26.60
2022-11-26T03:08:10.837Z,26.60
2022-11-26T03:11:13.244Z,26.30
2022-11-26T03:14:15.616Z,26.60
2022-11-26T03:17:17.794Z,26.50
2022-11-26T03:20:19.879Z,26.70
2022-11-26T03:23:21.886Z,26.80
2022-11-26T03:26:24.116Z,26.50
2022-11-26T03:29:25.997Z,26.70
2022-11-26T03:32:28.109Z,26.50
2022-11-26T03:35:30.005Z,26.70
2022-11-26T03:38:35.840Z,26.60
2022-11-26T03:41:37.881Z,26.70
2022-11-26T03:44:40.230Z,26.60
2022-11-26T03:47:42.303Z,26.80
2022-11-26T03:50:44.430Z,26.80
2022-11-26T03:53:46.915Z,26.80
2022-11-26T03:56:51.352Z,26.60
2022-11-26T03:59:53.186Z,26.70
2022-11-26T04:02:55.310Z,26.70
2022-11-26T04:05:57.273Z,26.70
2022-11-26T04:08:59.333Z,26.70
2022-11-26T04:12:01.195Z,26.70
2022-11-26T04:15:03.846Z,27.20
2022-11-26T04:18:05.676Z,26.80
2022-11-26T04:21:10.300Z,26.60
2022-11-26T04:24:12.121Z,26.60
2022-11-26T04:27:14.246Z,26.40
2022-11-26T04:30:16.218Z,26.40
2022-11-26T04:33:18.755Z,26.40
2022-11-26T04:36:20.592Z,26.60
2022-11-26T04:39:22.741Z,26.40
2022-11-26T04:42:24.610Z,26.30
2022-11-26T04:45:27.444Z,26.10
2022-11-26T04:48:29.406Z,26.40
2022-11-26T04:51:31.579Z,26.40
2022-11-26T04:54:33.473Z,26.20
2022-11-26T04:57:35.732Z,26.50
2022-11-26T05:00:37.523Z,26.60
2022-11-26T05:03:39.613Z,26.80
2022-11-26T05:06:41.385Z,26.50
2022-11-26T05:09:43.508Z,26.60
2022-11-26T05:12:48.727Z,26.60
2022-11-26T05:15:50.832Z,26.40
2022-11-26T05:18:52.681Z,26.50
2022-11-26T05:21:54.765Z,26.50
2022-11-26T05:24:56.556Z,26.80
2022-11-26T05:27:58.713Z,26.90
2022-11-26T05:31:02.344Z,26.80
2022-11-26T05:34:04.486Z,26.60
2022-11-26T05:37:06.463Z,27.30
2022-11-26T05:40:09.847Z,27.20
2022-11-26T05:43:11.755Z,27.00
2022-11-26T05:46:16.477Z,27.20
2022-11-26T05:49:18.350Z,27.10
2022-11-26T05:52:21.495Z,27.30
2022-11-26T05:55:23.276Z,26.90
2022-11-26T05:58:25.593Z,27.20
2022-11-26T06:01:27.394Z,26.80
2022-11-26T06:04:29.567Z,26.80
2022-11-26T06:07:31.431Z,26.70
2022-11-26T06:10:33.662Z,26.60
2022-11-26T06:13:35.454Z,27.00
2022-11-26T06:16:37.812Z,26.60
2022-11-26T06:19:39.921Z,26.40
2022-11-26T06:22:45.917Z,26.40
2022-11-26T06:25:48.737Z,26.40
2022-11-26T06:28:50.899Z,26.20
2022-11-26T06:31:52.765Z,26.80
2022-11-26T06:34:55.469Z,27.50
2022-11-26T06:37:57.367Z,28.10
2022-11-26T06:41:05.605Z,28.00
2022-11-26T06:44:07.474Z,27.40
2022-11-26T06:47:13.842Z,27.30
2022-11-26T06:50:18.021Z,28.00
2022-11-26T06:53:20.210Z,28.20
2022-11-26T06:56:22.151Z,27.80
2022-11-26T06:59:24.505Z,29.10
2022-11-26T07:02:26.342Z,28.50
2022-11-26T07:05:33.489Z,27.80
2022-11-26T07:08:35.258Z,27.40
2022-11-26T07:11:39.181Z,27.20
2022-11-26T07:14:41.213Z,27.00
2022-11-26T07:17:43.609Z,27.30
2022-11-26T07:20:46.432Z,27.70
2022-11-26T07:23:50.552Z,27.70
2022-11-26T07:26:52.361Z,27.70
2022-11-26T07:29:54.477Z,27.40
2022-11-26T07:32:56.282Z,27.40
2022-11-26T07:36:03.142Z,28.30
2022-11-26T07:39:04.978Z,28.20
2022-11-26T07:42:13.781Z,27.70
2022-11-26T07:45:15.649Z,28.70
2022-11-26T07:48:17.713Z,29.00
2022-11-26T07:51:24.655Z,28.60
2022-11-26T07:54:26.806Z,27.80
2022-11-26T07:57:28.649Z,27.80
2022-11-26T08:00:31.732Z,27.80
2022-11-26T08:03:36.448Z,27.70
2022-11-26T08:06:38.783Z,28.60
2022-11-26T08:09:40.846Z,28.70
2022-11-26T08:12:42.944Z,27.90
2022-11-26T08:15:47.888Z,27.70
2022-11-26T08:18:57.491Z,27.20
2022-11-26T08:21:59.320Z,26.80
2022-11-26T08:25:01.438Z,26.70
2022-11-26T08:28:03.341Z,26.50
2022-11-26T08:31:07.758Z,26.60
2022-11-26T08:34:14.285Z,26.60
2022-11-26T08:37:16.348Z,26.10
2022-11-26T08:40:18.370Z,26.20
2022-11-26T08:43:30.812Z,26.10
2022-11-26T08:46:41.940Z,25.80
2022-11-26T08:49:44.226Z,25.80
2022-11-26T08:52:45.980Z,25.60
2022-11-26T08:56:00.032Z,25.60
2022-11-26T08:59:03.014Z,25.50
2022-11-26T09:02:05.457Z,25.60
2022-11-26T09:05:07.733Z,25.50
2022-11-26T09:08:09.821Z,25.60
2022-11-26T09:11:12.223Z,25.50
2022-11-26T09:14:15.670Z,25.40
2022-11-26T09:17:17.621Z,25.30
2022-11-26T09:20:19.949Z,25.30
2022-11-26T09:23:21.788Z,25.30
2022-11-26T09:26:25.221Z,26.30
2022-11-26T09:29:27.106Z,26.50
2022-11-26T09:32:33.936Z,26.20
2022-11-26T09:35:36.137Z,26.10
2022-11-26T09:38:38.803Z,26.00
2022-11-26T09:41:43.683Z,26.60
2022-11-26T09:45:30.324Z,26.80
2022-11-26T09:48:34.208Z,26.50
2022-11-26T09:51:36.822Z,26.90
2022-11-26T09:54:40.015Z,26.60
2022-11-26T09:57:46.619Z,26.70
2022-11-26T10:00:51.993Z,26.90
2022-11-26T10:03:54.460Z,26.50
2022-11-26T10:07:20.445Z,25.90
2022-11-26T10:10:36.269Z,26.00
2022-11-26T10:13:38.124Z,26.50
2022-11-26T10:17:04.755Z,26.70
2022-11-26T10:20:13.183Z,27.10
2022-11-26T10:23:41.904Z,27.60
2022-11-26T10:26:44.717Z,27.90
2022-11-26T10:29:56.444Z,27.20
2022-11-26T10:33:03.449Z,27.40
2022-11-26T10:36:14.635Z,27.70
2022-11-26T10:39:19.466Z,27.50
2022-11-26T10:42:23.424Z,27.80
2022-11-26T10:45:36.012Z,27.70
2022-11-26T10:48:38.181Z,27.80
2022-11-26T10:51:40.333Z,27.30
2022-11-26T10:54:46.082Z,26.90
2022-11-26T10:57:58.745Z,26.60
2022-11-26T11:01:04.411Z,26.40
2022-11-26T11:04:22.355Z,26.10
2022-11-26T11:07:38.122Z,25.70
2022-11-26T11:11:02.688Z,25.80
2022-11-26T11:14:28.915Z,25.70
2022-11-26T11:17:36.837Z,25.50
2022-11-26T11:20:41.798Z,25.50
2022-11-26T11:24:07.722Z,25.40
2022-11-26T11:27:06.024Z,25.60
2022-11-26T11:30:25.462Z,25.50
2022-11-26T11:33:29.076Z,25.40
2022-11-26T11:36:30.993Z,25.10
2022-11-26T11:39:35.380Z,25.00
2022-11-26T11:42:40.423Z,24.80
2022-11-26T11:46:09.036Z,24.90
2022-11-26T11:49:43.234Z,25.00
2022-11-26T11:53:17.913Z,25.00
2022-11-26T11:56:44.184Z,24.90
2022-11-26T12:00:13.619Z,24.80
2022-11-26T12:03:33.606Z,24.70
2022-11-26T12:07:18.479Z,24.90
2022-11-26T12:10:44.628Z,24.90
2022-11-26T12:13:52.041Z,24.90
2022-11-26T12:17:04.057Z,24.90
2022-11-26T12:20:41.561Z,25.70
2022-11-26T12:23:53.505Z,25.00
2022-11-26T12:27:04.638Z,24.60
2022-11-26T12:30:15.244Z,24.90
2022-11-26T12:33:25.592Z,24.60
2022-11-26T12:36:36.472Z,24.80
2022-11-26T12:39:58.894Z,24.70
2022-11-26T12:43:27.707Z,24.90
2022-11-26T12:46:39.652Z,24.90
2022-11-26T12:50:07.195Z,24.90
2022-11-26T12:53:44.449Z,24.60
2022-11-26T12:57:31.370Z,24.80
2022-11-26T13:00:36.520Z,24.60
2022-11-26T13:03:38.676Z,24.60
2022-11-26T13:06:50.180Z,25.20
2022-11-26T13:10:15.553Z,25.50
2022-11-26T13:13:38.315Z,26.00
2022-11-26T13:16:56.450Z,25.80
2022-11-26T13:20:32.146Z,25.90
2022-11-26T13:23:49.530Z,25.50
2022-11-26T13:27:10.341Z,25.50
2022-11-26T13:30:31.765Z,25.20
2022-11-26T13:33:42.813Z,25.10
2022-11-26T13:37:09.533Z,25.30
2022-11-26T13:40:20.909Z,25.50
2022-11-26T13:43:55.235Z,25.20
2022-11-26T13:47:01.294Z,25.20
2022-11-26T13:50:17.320Z,25.20
2022-11-26T13:54:04.842Z,25.30
2022-11-26T13:57:13.263Z,25.30
2022-11-26T14:00:31.393Z,25.40
2022-11-26T14:03:51.108Z,25.10
2022-11-26T14:07:05.498Z,25.30
2022-11-26T14:10:38.986Z,25.20
2022-11-26T14:13:42.372Z,25.30
2022-11-26T14:17:02.916Z,25.40
2022-11-26T14:20:06.014Z,25.50
2022-11-26T14:23:43.609Z,25.40
2022-11-26T14:26:45.718Z,25.40
2022-11-26T14:30:13.306Z,25.50
2022-11-26T14:33:18.799Z,25.50
2022-11-26T14:36:26.624Z,25.50
2022-11-26T14:39:29.545Z,25.50
2022-11-26T14:42:32.734Z,25.40
2022-11-26T14:45:42.574Z,25.30
2022-11-26T14:48:48.964Z,25.20
2022-11-26T14:51:55.406Z,25.30
2022-11-26T14:55:00.014Z,25.30
2022-11-26T14:58:19.087Z,25.30
2022-11-26T15:01:22.881Z,25.20
2022-11-26T15:04:30.640Z,25.20
2022-11-26T15:07:32.828Z,25.10
2022-11-26T15:10:38.967Z,25.50
2022-11-26T15:13:45.792Z,25.00
2022-11-26T15:16:55.412Z,24.90
2022-11-26T15:20:01.809Z,25.10
2022-11-26T15:23:06.631Z,25.30
2022-11-26T15:26:17.124Z,25.00
2022-11-26T15:29:41.481Z,25.00
2022-11-26T15:32:43.354Z,25.00
2022-11-26T15:35:46.074Z,25.10
2022-11-26T15:39:03.204Z,25.00
2022-11-26T15:42:22.009Z,25.00
2022-11-26T15:45:35.502Z,25.20
2022-11-26T15:48:57.979Z,25.20
2022-11-26T15:52:03.680Z,25.20
2022-11-26T15:55:12.856Z,25.70
2022-11-26T15:58:22.026Z,25.30
2022-11-26T16:01:29.712Z,25.40
2022-11-26T16:04:42.855Z,25.50
2022-11-26T16:07:57.043Z,25.50
2022-11-26T16:11:17.862Z,25.50
2022-11-26T16:14:26.819Z,25.50
2022-11-26T16:17:28.771Z,25.30
2022-11-26T16:20:30.953Z,25.40
2022-11-26T16:23:33.235Z,25.40
2022-11-26T16:27:00.708Z,25.30
2022-11-26T16:30:14.049Z,25.50
2022-11-26T16:33:16.227Z,25.50
2022-11-26T16:36:24.949Z,25.40
2022-11-26T16:39:30.225Z,25.50
2022-11-26T16:42:32.720Z,25.40
2022-11-26T16:45:36.292Z,25.50
2022-11-26T16:48:39.361Z,25.60
2022-11-26T16:51:41.661Z,25.60
2022-11-26T16:54:43.665Z,25.50
2022-11-26T16:57:49.763Z,25.50
2022-11-26T17:00:51.701Z,25.50
2022-11-26T17:03:53.898Z,25.70
2022-11-26T17:06:55.833Z,25.60
2022-11-26T17:09:58.042Z,25.50
2022-11-26T17:12:59.906Z,25.30
2022-11-26T17:16:03.038Z,25.30
2022-11-26T17:19:05.075Z,25.40
2022-11-26T17:22:11.761Z,25.40
2022-11-26T17:25:14.433Z,25.40
2022-11-26T17:28:16.596Z,25.60
2022-11-26T17:31:20.761Z,25.60
2022-11-26T17:34:26.052Z,25.60
2022-11-26T17:37:29.759Z,25.50
2022-11-26T17:40:32.545Z,25.40
2022-11-26T17:43:34.381Z,25.50
2022-11-26T17:47:01.052Z,25.50
2022-11-26T17:49:58.368Z,25.30
2022-11-26T17:53:00.534Z,25.40
2022-11-26T17:56:02.459Z,25.50
2022-11-26T17:59:04.570Z,25.50
2022-11-26T18:02:07.083Z,25.50
2022-11-26T18:05:10.399Z,25.50
2022-11-26T18:08:12.202Z,25.60
2022-11-26T18:11:15.976Z,25.60
2022-11-26T18:14:18.287Z,25.50
2022-11-26T18:17:20.846Z,25.60
2022-11-26T18:20:26.950Z,25.50
2022-11-26T18:23:29.132Z,25.50
2022-11-26T18:26:31.315Z,25.50
2022-11-26T18:29:33.509Z,25.60
2022-11-26T18:32:37.399Z,25.60
2022-11-26T18:35:41.562Z,25.50
2022-11-26T18:38:43.456Z,25.50
2022-11-26T18:41:45.555Z,25.70
2022-11-26T18:44:47.624Z,25.50
2022-11-26T18:47:49.813Z,25.60
2022-11-26T18:50:58.544Z,25.60
2022-11-26T18:54:01.813Z,25.60
2022-11-26T18:57:03.698Z,25.70
2022-11-26T19:00:07.198Z,25.70
2022-11-26T19:03:10.526Z,25.70
2022-11-26T19:06:32.690Z,25.40
2022-11-26T19:09:38.087Z,25.40
2022-11-26T19:12:40.669Z,25.40
2022-11-26T19:15:48.951Z,25.40
2022-11-26T19:18:51.603Z,25.30
2022-11-26T19:22:00.495Z,25.40
2022-11-26T19:25:04.263Z,25.40
2022-11-26T19:28:09.907Z,25.40
2022-11-26T19:31:20.086Z,25.50
2022-11-26T19:34:24.234Z,25.50
2022-11-26T19:37:29.615Z,25.60
2022-11-26T19:40:35.560Z,25.40
2022-11-26T19:43:41.384Z,25.40
2022-11-26T19:46:43.382Z,25.40
2022-11-26T19:49:45.642Z,25.40
2022-11-26T19:52:49.753Z,25.30
2022-11-26T19:56:08.508Z,25.30
2022-11-26T19:59:12.683Z,25.60
2022-11-26T20:02:15.543Z,25.70
2022-11-26T20:05:17.522Z,25.60
2022-11-26T20:08:19.644Z,25.60
2022-11-26T20:11:22.752Z,25.60
2022-11-26T20:14:24.879Z,25.60
2022-11-26T20:17:27.927Z,25.50
2022-11-26T20:20:30.061Z,25.50
2022-11-26T20:23:32.000Z,25.50
2022-11-26T20:26:38.198Z,25.50
2022-11-26T20:29:40.210Z,25.60
2022-11-26T20:32:42.445Z,25.60
2022-11-26T20:35:44.937Z,25.70
2022-11-26T20:38:47.510Z,25.80
2022-11-26T20:41:49.994Z,25.80
2022-11-26T20:44:52.098Z,25.90
2022-11-26T20:47:54.083Z,25.90
2022-11-26T20:51:01.984Z,25.80
2022-11-26T20:54:04.275Z,25.80
2022-11-26T20:57:07.298Z,25.80
2022-11-26T21:00:10.511Z,25.80
2022-11-26T21:03:12.748Z,25.70
2022-11-26T21:06:16.579Z,25.80
2022-11-26T21:09:18.690Z,25.70
2022-11-26T21:12:20.574Z,25.60
2022-11-26T21:15:23.535Z,25.60
2022-11-26T21:18:25.373Z,25.60
2022-11-26T21:21:28.965Z,25.60
2022-11-26T21:24:30.825Z,25.60
2022-11-26T21:27:33.881Z,25.60
2022-11-26T21:30:37.101Z,25.70
2022-11-26T21:33:39.249Z,25.90
2022-11-26T21:36:43.305Z,26.00
2022-11-26T21:39:45.545Z,25.90
2022-11-26T21:42:49.669Z,26.20
2022-11-26T21:45:51.783Z,26.40
2022-11-26T21:48:56.033Z,26.30
2022-11-26T21:51:58.641Z,26.80
2022-11-26T21:55:03.569Z,26.30
2022-11-26T21:58:06.136Z,26.10
2022-11-26T22:01:29.725Z,26.00
2022-11-26T22:04:32.863Z,26.10
2022-11-26T22:07:34.998Z,25.90
2022-11-26T22:10:37.232Z,25.90
2022-11-26T22:13:40.447Z,25.90
2022-11-26T22:16:43.661Z,25.80
2022-11-26T22:19:45.579Z,25.80
2022-11-26T22:22:47.677Z,25.90
2022-11-26T22:25:49.585Z,25.90
2022-11-26T22:28:52.429Z,25.80
2022-11-26T22:31:54.347Z,25.90
2022-11-26T22:34:56.454Z,26.00
2022-11-26T22:37:58.334Z,25.90
2022-11-26T22:41:02.742Z,25.90
2022-11-26T22:44:04.977Z,25.90
2022-11-26T22:47:07.097Z,25.90
2022-11-26T22:50:09.345Z,26.00
2022-11-26T22:53:11.448Z,26.20
2022-11-26T22:56:13.441Z,26.20
2022-11-26T22:59:15.675Z,26.50
2022-11-26T23:02:17.552Z,26.50
2022-11-26T23:05:19.823Z,26.40
2022-11-26T23:08:22.467Z,26.50
2022-11-26T23:11:39.566Z,26.40
2022-11-26T23:14:41.403Z,26.40
2022-11-26T23:17:43.461Z,26.40
2022-11-26T23:20:45.447Z,26.40
2022-11-26T23:23:47.852Z,26.20
2022-11-26T23:26:49.656Z,26.20
2022-11-26T23:29:52.246Z,26.10
2022-11-26T23:32:54.048Z,26.10
2022-11-26T23:35:56.956Z,26.00
2022-11-26T23:39:00.323Z,26.10
2022-11-26T23:42:02.395Z,26.20
2022-11-26T23:45:04.597Z,26.20
2022-11-26T23:48:06.706Z,26.10
2022-11-26T23:51:11.265Z,26.00
2022-11-26T23:54:13.389Z,26.10
2022-11-26T23:57:15.402Z,26.00
